sensor_id;sensor_type;location;lat;lon;timestamp;P1;durP1;ratioP1;P2;durP2;ratioP2
80307;SDS011;69616;43.522;1.348;2024-01-25T00:00:50;79.60;;;25.90;;
80307;SDS011;69616;43.522;1.348;2024-01-25T00:03:16;91.17;;;25.57;;
80307;SDS011;69616;43.522;1.348;2024-01-25T00:05:41;65.63;;;24.10;;
80307;SDS011;69616;43.522;1.348;2024-01-25T00:08:08;58.65;;;23.65;;
80307;SDS011;69616;43.522;1.348;2024-01-25T00:10:33;55.03;;;23.87;;
80307;SDS011;69616;43.522;1.348;2024-01-25T00:12:58;62.55;;;23.05;;
80307;SDS011;69616;43.522;1.348;2024-01-25T00:15:24;54.03;;;23.03;;
80307;SDS011;69616;43.522;1.348;2024-01-25T00:17:51;53.80;;;21.57;;
80307;SDS011;69616;43.522;1.348;2024-01-25T00:20:16;58.13;;;21.75;;
80307;SDS011;69616;43.522;1.348;2024-01-25T00:22:41;57.50;;;20.80;;
80307;SDS011;69616;43.522;1.348;2024-01-25T00:25:07;47.50;;;20.57;;
80307;SDS011;69616;43.522;1.348;2024-01-25T00:27:32;45.70;;;20.42;;
80307;SDS011;69616;43.522;1.348;2024-01-25T00:29:58;39.30;;;18.90;;
80307;SDS011;69616;43.522;1.348;2024-01-25T00:32:23;40.00;;;19.47;;
80307;SDS011;69616;43.522;1.348;2024-01-25T00:34:49;46.43;;;18.77;;
80307;SDS011;69616;43.522;1.348;2024-01-25T00:37:14;41.63;;;18.73;;
80307;SDS011;69616;43.522;1.348;2024-01-25T00:39:40;38.85;;;18.75;;
80307;SDS011;69616;43.522;1.348;2024-01-25T00:42:06;42.57;;;19.23;;
80307;SDS011;69616;43.522;1.348;2024-01-25T00:44:32;40.45;;;18.60;;
80307;SDS011;69616;43.522;1.348;2024-01-25T00:46:58;40.57;;;18.20;;
80307;SDS011;69616;43.522;1.348;2024-01-25T00:49:24;44.83;;;18.38;;
80307;SDS011;69616;43.522;1.348;2024-01-25T00:51:50;40.35;;;17.92;;
80307;SDS011;69616;43.522;1.348;2024-01-25T00:54:23;44.42;;;18.88;;
80307;SDS011;69616;43.522;1.348;2024-01-25T00:56:49;41.40;;;18.33;;
80307;SDS011;69616;43.522;1.348;2024-01-25T00:59:17;38.47;;;17.98;;
80307;SDS011;69616;43.522;1.348;2024-01-25T01:01:43;34.38;;;17.15;;
80307;SDS011;69616;43.522;1.348;2024-01-25T01:04:12;36.13;;;17.10;;
80307;SDS011;69616;43.522;1.348;2024-01-25T01:06:37;35.30;;;16.40;;
80307;SDS011;69616;43.522;1.348;2024-01-25T01:09:03;33.50;;;16.73;;
80307;SDS011;69616;43.522;1.348;2024-01-25T01:11:29;28.53;;;14.70;;
80307;SDS011;69616;43.522;1.348;2024-01-25T01:13:55;24.67;;;13.60;;
80307;SDS011;69616;43.522;1.348;2024-01-25T01:16:20;26.90;;;13.70;;
80307;SDS011;69616;43.522;1.348;2024-01-25T01:18:46;25.83;;;13.00;;
80307;SDS011;69616;43.522;1.348;2024-01-25T01:21:11;27.80;;;14.30;;
80307;SDS011;69616;43.522;1.348;2024-01-25T01:23:37;22.53;;;13.20;;
80307;SDS011;69616;43.522;1.348;2024-01-25T01:26:03;26.27;;;13.80;;
80307;SDS011;69616;43.522;1.348;2024-01-25T01:28:29;27.65;;;13.35;;
80307;SDS011;69616;43.522;1.348;2024-01-25T01:30:55;25.13;;;13.93;;
80307;SDS011;69616;43.522;1.348;2024-01-25T01:33:20;37.10;;;15.87;;
80307;SDS011;69616;43.522;1.348;2024-01-25T01:35:45;42.22;;;15.30;;
80307;SDS011;69616;43.522;1.348;2024-01-25T01:38:11;35.77;;;14.93;;
80307;SDS011;69616;43.522;1.348;2024-01-25T01:40:36;31.63;;;13.17;;
80307;SDS011;69616;43.522;1.348;2024-01-25T01:43:02;42.92;;;12.10;;
80307;SDS011;69616;43.522;1.348;2024-01-25T01:45:27;32.67;;;12.07;;
80307;SDS011;69616;43.522;1.348;2024-01-25T01:47:54;31.97;;;12.00;;
80307;SDS011;69616;43.522;1.348;2024-01-25T01:50:21;32.13;;;11.50;;
80307;SDS011;69616;43.522;1.348;2024-01-25T01:52:49;21.45;;;10.13;;
80307;SDS011;69616;43.522;1.348;2024-01-25T01:55:16;23.92;;;10.60;;
80307;SDS011;69616;43.522;1.348;2024-01-25T01:57:42;21.98;;;10.65;;
80307;SDS011;69616;43.522;1.348;2024-01-25T02:00:08;19.05;;;10.30;;
80307;SDS011;69616;43.522;1.348;2024-01-25T02:02:37;17.77;;;9.17;;
80307;SDS011;69616;43.522;1.348;2024-01-25T02:05:02;18.33;;;10.13;;
80307;SDS011;69616;43.522;1.348;2024-01-25T02:07:28;16.80;;;8.80;;
80307;SDS011;69616;43.522;1.348;2024-01-25T02:09:54;16.38;;;8.75;;
80307;SDS011;69616;43.522;1.348;2024-01-25T02:12:19;14.93;;;8.13;;
80307;SDS011;69616;43.522;1.348;2024-01-25T02:14:45;12.13;;;7.17;;
80307;SDS011;69616;43.522;1.348;2024-01-25T02:17:11;13.13;;;7.22;;
80307;SDS011;69616;43.522;1.348;2024-01-25T02:19:36;13.07;;;6.80;;
80307;SDS011;69616;43.522;1.348;2024-01-25T02:22:01;14.90;;;7.83;;
80307;SDS011;69616;43.522;1.348;2024-01-25T02:24:29;14.63;;;7.25;;
80307;SDS011;69616;43.522;1.348;2024-01-25T02:26:55;12.60;;;7.13;;
80307;SDS011;69616;43.522;1.348;2024-01-25T02:29:21;14.80;;;7.18;;
80307;SDS011;69616;43.522;1.348;2024-01-25T02:31:46;13.17;;;7.17;;
80307;SDS011;69616;43.522;1.348;2024-01-25T02:34:12;14.07;;;7.27;;
80307;SDS011;69616;43.522;1.348;2024-01-25T02:36:37;15.13;;;6.82;;
80307;SDS011;69616;43.522;1.348;2024-01-25T02:39:02;10.53;;;6.20;;
80307;SDS011;69616;43.522;1.348;2024-01-25T02:41:29;14.30;;;6.60;;
80307;SDS011;69616;43.522;1.348;2024-01-25T02:43:56;11.27;;;6.23;;
80307;SDS011;69616;43.522;1.348;2024-01-25T02:46:21;11.32;;;6.20;;
80307;SDS011;69616;43.522;1.348;2024-01-25T02:48:46;12.20;;;6.57;;
80307;SDS011;69616;43.522;1.348;2024-01-25T02:51:12;12.53;;;6.00;;
80307;SDS011;69616;43.522;1.348;2024-01-25T02:53:37;11.63;;;6.67;;
80307;SDS011;69616;43.522;1.348;2024-01-25T02:56:03;13.17;;;6.83;;
80307;SDS011;69616;43.522;1.348;2024-01-25T02:58:28;12.30;;;6.75;;
80307;SDS011;69616;43.522;1.348;2024-01-25T03:00:54;13.73;;;6.20;;
80307;SDS011;69616;43.522;1.348;2024-01-25T03:03:19;12.37;;;6.80;;
80307;SDS011;69616;43.522;1.348;2024-01-25T03:05:45;13.20;;;7.20;;
80307;SDS011;69616;43.522;1.348;2024-01-25T03:08:10;12.10;;;6.83;;
80307;SDS011;69616;43.522;1.348;2024-01-25T03:10:35;12.00;;;6.53;;
80307;SDS011;69616;43.522;1.348;2024-01-25T03:13:01;14.07;;;7.30;;
80307;SDS011;69616;43.522;1.348;2024-01-25T03:15:26;13.63;;;7.30;;
80307;SDS011;69616;43.522;1.348;2024-01-25T03:17:51;14.35;;;7.10;;
80307;SDS011;69616;43.522;1.348;2024-01-25T03:20:17;16.30;;;7.73;;
80307;SDS011;69616;43.522;1.348;2024-01-25T03:22:42;16.53;;;7.77;;
80307;SDS011;69616;43.522;1.348;2024-01-25T03:25:08;17.23;;;8.33;;
80307;SDS011;69616;43.522;1.348;2024-01-25T03:27:34;18.70;;;7.88;;
80307;SDS011;69616;43.522;1.348;2024-01-25T03:29:59;19.77;;;8.17;;
80307;SDS011;69616;43.522;1.348;2024-01-25T03:32:24;17.35;;;7.93;;
80307;SDS011;69616;43.522;1.348;2024-01-25T03:34:50;18.07;;;7.03;;
80307;SDS011;69616;43.522;1.348;2024-01-25T03:37:15;17.30;;;7.50;;
80307;SDS011;69616;43.522;1.348;2024-01-25T03:39:41;22.10;;;8.07;;
80307;SDS011;69616;43.522;1.348;2024-01-25T03:42:06;22.83;;;8.70;;
80307;SDS011;69616;43.522;1.348;2024-01-25T03:44:32;19.25;;;8.07;;
80307;SDS011;69616;43.522;1.348;2024-01-25T03:46:57;20.30;;;8.43;;
80307;SDS011;69616;43.522;1.348;2024-01-25T03:49:22;16.87;;;8.03;;
80307;SDS011;69616;43.522;1.348;2024-01-25T03:51:48;21.07;;;8.40;;
80307;SDS011;69616;43.522;1.348;2024-01-25T03:54:14;25.03;;;8.60;;
80307;SDS011;69616;43.522;1.348;2024-01-25T03:56:40;24.40;;;8.27;;
80307;SDS011;69616;43.522;1.348;2024-01-25T03:59:05;28.60;;;9.40;;
80307;SDS011;69616;43.522;1.348;2024-01-25T04:01:40;19.83;;;8.45;;
80307;SDS011;69616;43.522;1.348;2024-01-25T04:04:06;24.93;;;8.50;;
80307;SDS011;69616;43.522;1.348;2024-01-25T04:06:34;25.20;;;8.75;;
80307;SDS011;69616;43.522;1.348;2024-01-25T04:08:59;23.73;;;8.87;;
80307;SDS011;69616;43.522;1.348;2024-01-25T04:11:25;16.97;;;7.97;;
80307;SDS011;69616;43.522;1.348;2024-01-25T04:13:50;25.43;;;8.20;;
80307;SDS011;69616;43.522;1.348;2024-01-25T04:16:15;19.20;;;8.57;;
80307;SDS011;69616;43.522;1.348;2024-01-25T04:18:41;20.67;;;8.33;;
80307;SDS011;69616;43.522;1.348;2024-01-25T04:21:06;22.87;;;8.97;;
80307;SDS011;69616;43.522;1.348;2024-01-25T04:23:31;21.80;;;8.82;;
80307;SDS011;69616;43.522;1.348;2024-01-25T04:25:57;21.63;;;8.23;;
80307;SDS011;69616;43.522;1.348;2024-01-25T04:28:22;23.13;;;8.67;;
80307;SDS011;69616;43.522;1.348;2024-01-25T04:30:48;23.33;;;7.83;;
80307;SDS011;69616;43.522;1.348;2024-01-25T04:33:13;16.43;;;7.83;;
80307;SDS011;69616;43.522;1.348;2024-01-25T04:35:38;17.55;;;7.60;;
80307;SDS011;69616;43.522;1.348;2024-01-25T04:38:04;22.30;;;8.13;;
80307;SDS011;69616;43.522;1.348;2024-01-25T04:40:29;17.03;;;7.43;;
80307;SDS011;69616;43.522;1.348;2024-01-25T04:42:55;19.60;;;8.02;;
80307;SDS011;69616;43.522;1.348;2024-01-25T04:45:20;19.77;;;8.00;;
80307;SDS011;69616;43.522;1.348;2024-01-25T04:47:45;16.87;;;7.37;;
80307;SDS011;69616;43.522;1.348;2024-01-25T04:50:11;19.30;;;7.87;;
80307;SDS011;69616;43.522;1.348;2024-01-25T04:52:36;22.17;;;8.17;;
80307;SDS011;69616;43.522;1.348;2024-01-25T04:55:01;26.17;;;8.27;;
80307;SDS011;69616;43.522;1.348;2024-01-25T04:57:27;21.93;;;7.73;;
80307;SDS011;69616;43.522;1.348;2024-01-25T04:59:53;20.23;;;7.27;;
80307;SDS011;69616;43.522;1.348;2024-01-25T05:02:18;21.45;;;7.97;;
80307;SDS011;69616;43.522;1.348;2024-01-25T05:04:43;22.10;;;8.10;;
80307;SDS011;69616;43.522;1.348;2024-01-25T05:07:09;20.40;;;7.57;;
80307;SDS011;69616;43.522;1.348;2024-01-25T05:09:36;19.63;;;7.22;;
80307;SDS011;69616;43.522;1.348;2024-01-25T05:12:02;20.27;;;7.57;;
80307;SDS011;69616;43.522;1.348;2024-01-25T05:14:27;20.53;;;8.13;;
80307;SDS011;69616;43.522;1.348;2024-01-25T05:16:53;18.30;;;8.13;;
80307;SDS011;69616;43.522;1.348;2024-01-25T05:19:18;16.97;;;7.27;;
80307;SDS011;69616;43.522;1.348;2024-01-25T05:21:44;18.33;;;7.43;;
80307;SDS011;69616;43.522;1.348;2024-01-25T05:24:09;18.83;;;7.93;;
80307;SDS011;69616;43.522;1.348;2024-01-25T05:26:35;20.08;;;8.30;;
80307;SDS011;69616;43.522;1.348;2024-01-25T05:29:00;23.77;;;8.47;;
80307;SDS011;69616;43.522;1.348;2024-01-25T05:31:26;24.40;;;8.67;;
80307;SDS011;69616;43.522;1.348;2024-01-25T05:33:51;19.95;;;7.80;;
80307;SDS011;69616;43.522;1.348;2024-01-25T05:36:17;19.47;;;7.90;;
80307;SDS011;69616;43.522;1.348;2024-01-25T05:38:42;19.00;;;7.40;;
80307;SDS011;69616;43.522;1.348;2024-01-25T05:41:07;20.33;;;8.27;;
80307;SDS011;69616;43.522;1.348;2024-01-25T05:43:33;22.90;;;8.97;;
80307;SDS011;69616;43.522;1.348;2024-01-25T05:45:58;34.73;;;15.07;;
80307;SDS011;69616;43.522;1.348;2024-01-25T05:48:24;36.03;;;15.93;;
80307;SDS011;69616;43.522;1.348;2024-01-25T05:50:49;34.80;;;16.23;;
80307;SDS011;69616;43.522;1.348;2024-01-25T05:53:14;30.67;;;13.07;;
80307;SDS011;69616;43.522;1.348;2024-01-25T05:55:41;25.52;;;11.90;;
80307;SDS011;69616;43.522;1.348;2024-01-25T05:58:07;25.17;;;10.37;;
80307;SDS011;69616;43.522;1.348;2024-01-25T06:00:32;28.47;;;9.63;;
80307;SDS011;69616;43.522;1.348;2024-01-25T06:02:58;17.80;;;8.88;;
80307;SDS011;69616;43.522;1.348;2024-01-25T06:05:24;21.57;;;8.90;;
80307;SDS011;69616;43.522;1.348;2024-01-25T06:07:49;29.87;;;9.50;;
80307;SDS011;69616;43.522;1.348;2024-01-25T06:10:15;26.67;;;8.82;;
80307;SDS011;69616;43.522;1.348;2024-01-25T06:12:40;25.27;;;8.60;;
80307;SDS011;69616;43.522;1.348;2024-01-25T06:15:06;27.45;;;9.38;;
80307;SDS011;69616;43.522;1.348;2024-01-25T06:17:32;32.10;;;9.40;;
80307;SDS011;69616;43.522;1.348;2024-01-25T06:19:57;20.83;;;7.78;;
80307;SDS011;69616;43.522;1.348;2024-01-25T06:22:23;20.83;;;7.37;;
80307;SDS011;69616;43.522;1.348;2024-01-25T06:24:48;27.40;;;8.20;;
80307;SDS011;69616;43.522;1.348;2024-01-25T06:27:13;21.73;;;8.23;;
80307;SDS011;69616;43.522;1.348;2024-01-25T06:29:39;23.43;;;7.63;;
80307;SDS011;69616;43.522;1.348;2024-01-25T06:32:05;23.38;;;8.88;;
80307;SDS011;69616;43.522;1.348;2024-01-25T06:34:31;23.73;;;9.00;;
80307;SDS011;69616;43.522;1.348;2024-01-25T06:36:57;24.83;;;9.20;;
80307;SDS011;69616;43.522;1.348;2024-01-25T06:39:22;25.23;;;8.30;;
80307;SDS011;69616;43.522;1.348;2024-01-25T06:41:47;18.10;;;8.07;;
80307;SDS011;69616;43.522;1.348;2024-01-25T06:44:13;26.70;;;8.63;;
80307;SDS011;69616;43.522;1.348;2024-01-25T06:46:38;25.65;;;7.70;;
80307;SDS011;69616;43.522;1.348;2024-01-25T06:49:04;26.80;;;7.83;;
80307;SDS011;69616;43.522;1.348;2024-01-25T06:51:29;20.87;;;7.50;;
80307;SDS011;69616;43.522;1.348;2024-01-25T06:53:54;22.43;;;7.63;;
80307;SDS011;69616;43.522;1.348;2024-01-25T06:56:20;17.80;;;7.13;;
80307;SDS011;69616;43.522;1.348;2024-01-25T06:58:45;19.93;;;7.00;;
80307;SDS011;69616;43.522;1.348;2024-01-25T07:01:45;19.93;;;7.23;;
80307;SDS011;69616;43.522;1.348;2024-01-25T07:04:11;18.35;;;7.47;;
80307;SDS011;69616;43.522;1.348;2024-01-25T07:06:37;15.80;;;7.20;;
80307;SDS011;69616;43.522;1.348;2024-01-25T07:09:02;21.80;;;8.25;;
80307;SDS011;69616;43.522;1.348;2024-01-25T07:11:28;22.77;;;8.57;;
80307;SDS011;69616;43.522;1.348;2024-01-25T07:13:54;21.08;;;8.85;;
80307;SDS011;69616;43.522;1.348;2024-01-25T07:16:19;19.67;;;7.37;;
80307;SDS011;69616;43.522;1.348;2024-01-25T07:18:45;17.77;;;6.23;;
80307;SDS011;69616;43.522;1.348;2024-01-25T07:21:10;19.08;;;6.93;;
80307;SDS011;69616;43.522;1.348;2024-01-25T07:23:36;23.40;;;7.80;;
80307;SDS011;69616;43.522;1.348;2024-01-25T07:26:01;19.13;;;7.40;;
80307;SDS011;69616;43.522;1.348;2024-01-25T07:28:26;23.40;;;6.80;;
80307;SDS011;69616;43.522;1.348;2024-01-25T07:30:52;18.13;;;6.07;;
80307;SDS011;69616;43.522;1.348;2024-01-25T07:33:17;12.27;;;5.00;;
80307;SDS011;69616;43.522;1.348;2024-01-25T07:39:19;17.33;;;4.65;;
80307;SDS011;69616;43.522;1.348;2024-01-25T07:41:45;19.75;;;5.10;;
80307;SDS011;69616;43.522;1.348;2024-01-25T07:44:10;18.13;;;4.30;;
80307;SDS011;69616;43.522;1.348;2024-01-25T07:46:36;23.23;;;5.23;;
80307;SDS011;69616;43.522;1.348;2024-01-25T07:49:01;13.35;;;4.38;;
80307;SDS011;69616;43.522;1.348;2024-01-25T07:51:27;13.30;;;4.30;;
80307;SDS011;69616;43.522;1.348;2024-01-25T07:53:54;15.48;;;3.97;;
80307;SDS011;69616;43.522;1.348;2024-01-25T07:56:19;19.70;;;3.93;;
80307;SDS011;69616;43.522;1.348;2024-01-25T07:58:47;13.80;;;4.50;;
80307;SDS011;69616;43.522;1.348;2024-01-25T08:01:13;19.92;;;4.53;;
80307;SDS011;69616;43.522;1.348;2024-01-25T08:03:42;14.75;;;3.80;;
80307;SDS011;69616;43.522;1.348;2024-01-25T08:06:08;21.30;;;4.63;;
80307;SDS011;69616;43.522;1.348;2024-01-25T08:08:33;13.90;;;4.37;;
80307;SDS011;69616;43.522;1.348;2024-01-25T08:10:59;12.23;;;4.47;;
80307;SDS011;69616;43.522;1.348;2024-01-25T08:13:24;12.27;;;4.57;;
80307;SDS011;69616;43.522;1.348;2024-01-25T08:15:50;35.07;;;5.47;;
80307;SDS011;69616;43.522;1.348;2024-01-25T08:18:16;11.13;;;3.20;;
80307;SDS011;69616;43.522;1.348;2024-01-25T08:20:44;11.82;;;3.38;;
80307;SDS011;69616;43.522;1.348;2024-01-25T08:23:09;43.33;;;4.10;;
80307;SDS011;69616;43.522;1.348;2024-01-25T08:25:35;10.40;;;3.33;;
80307;SDS011;69616;43.522;1.348;2024-01-25T08:28:00;25.48;;;3.65;;
80307;SDS011;69616;43.522;1.348;2024-01-25T08:30:26;33.17;;;4.13;;
80307;SDS011;69616;43.522;1.348;2024-01-25T08:32:51;19.93;;;3.60;;
80307;SDS011;69616;43.522;1.348;2024-01-25T08:35:17;22.23;;;4.28;;
80307;SDS011;69616;43.522;1.348;2024-01-25T08:37:42;30.30;;;4.03;;
80307;SDS011;69616;43.522;1.348;2024-01-25T08:40:08;9.87;;;3.73;;
80307;SDS011;69616;43.522;1.348;2024-01-25T08:42:34;17.50;;;4.30;;
80307;SDS011;69616;43.522;1.348;2024-01-25T08:45:00;24.40;;;4.30;;
80307;SDS011;69616;43.522;1.348;2024-01-25T08:47:26;23.13;;;5.20;;
80307;SDS011;69616;43.522;1.348;2024-01-25T08:49:51;31.67;;;6.18;;
80307;SDS011;69616;43.522;1.348;2024-01-25T08:52:17;38.67;;;6.50;;
80307;SDS011;69616;43.522;1.348;2024-01-25T08:54:42;46.83;;;6.10;;
80307;SDS011;69616;43.522;1.348;2024-01-25T08:57:08;29.85;;;6.65;;
80307;SDS011;69616;43.522;1.348;2024-01-25T08:59:34;62.60;;;8.00;;
80307;SDS011;69616;43.522;1.348;2024-01-25T09:02:05;41.10;;;8.03;;
80307;SDS011;69616;43.522;1.348;2024-01-25T09:04:31;23.25;;;6.93;;
80307;SDS011;69616;43.522;1.348;2024-01-25T09:06:57;52.80;;;7.68;;
80307;SDS011;69616;43.522;1.348;2024-01-25T09:09:23;48.05;;;7.55;;
80307;SDS011;69616;43.522;1.348;2024-01-25T09:11:49;55.87;;;7.50;;
80307;SDS011;69616;43.522;1.348;2024-01-25T09:14:14;47.73;;;8.33;;
80307;SDS011;69616;43.522;1.348;2024-01-25T09:16:40;35.20;;;8.20;;
80307;SDS011;69616;43.522;1.348;2024-01-25T09:19:05;42.53;;;8.00;;
80307;SDS011;69616;43.522;1.348;2024-01-25T09:21:30;40.03;;;8.87;;
80307;SDS011;69616;43.522;1.348;2024-01-25T09:23:56;41.67;;;8.53;;
80307;SDS011;69616;43.522;1.348;2024-01-25T09:26:21;40.20;;;8.65;;
80307;SDS011;69616;43.522;1.348;2024-01-25T09:28:47;39.33;;;9.97;;
80307;SDS011;69616;43.522;1.348;2024-01-25T09:31:12;82.27;;;11.50;;
80307;SDS011;69616;43.522;1.348;2024-01-25T09:33:38;44.07;;;11.20;;
80307;SDS011;69616;43.522;1.348;2024-01-25T09:36:03;31.02;;;8.85;;
80307;SDS011;69616;43.522;1.348;2024-01-25T09:38:29;20.73;;;8.73;;
80307;SDS011;69616;43.522;1.348;2024-01-25T09:40:55;24.05;;;8.50;;
80307;SDS011;69616;43.522;1.348;2024-01-25T09:43:21;28.37;;;7.87;;
80307;SDS011;69616;43.522;1.348;2024-01-25T09:45:48;30.25;;;8.88;;
80307;SDS011;69616;43.522;1.348;2024-01-25T09:48:18;45.58;;;8.93;;
80307;SDS011;69616;43.522;1.348;2024-01-25T09:50:44;24.50;;;8.93;;
80307;SDS011;69616;43.522;1.348;2024-01-25T09:53:15;19.45;;;7.88;;
80307;SDS011;69616;43.522;1.348;2024-01-25T09:55:46;29.15;;;7.90;;
80307;SDS011;69616;43.522;1.348;2024-01-25T09:58:22;21.40;;;6.75;;
80307;SDS011;69616;43.522;1.348;2024-01-25T10:00:50;20.27;;;7.00;;
80307;SDS011;69616;43.522;1.348;2024-01-25T10:03:15;18.02;;;6.70;;
80307;SDS011;69616;43.522;1.348;2024-01-25T10:05:41;14.73;;;4.97;;
80307;SDS011;69616;43.522;1.348;2024-01-25T10:08:11;23.60;;;6.13;;
80307;SDS011;69616;43.522;1.348;2024-01-25T10:10:38;15.25;;;5.32;;
80307;SDS011;69616;43.522;1.348;2024-01-25T10:13:03;11.67;;;4.93;;
80307;SDS011;69616;43.522;1.348;2024-01-25T10:15:30;13.00;;;5.07;;
80307;SDS011;69616;43.522;1.348;2024-01-25T10:17:55;12.80;;;5.17;;
80307;SDS011;69616;43.522;1.348;2024-01-25T10:20:21;11.35;;;4.85;;
80307;SDS011;69616;43.522;1.348;2024-01-25T10:22:49;13.63;;;4.93;;
80307;SDS011;69616;43.522;1.348;2024-01-25T10:25:14;21.60;;;5.67;;
80307;SDS011;69616;43.522;1.348;2024-01-25T10:27:40;18.90;;;4.70;;
80307;SDS011;69616;43.522;1.348;2024-01-25T10:30:06;10.60;;;5.20;;
80307;SDS011;69616;43.522;1.348;2024-01-25T10:32:32;10.20;;;5.03;;
80307;SDS011;69616;43.522;1.348;2024-01-25T10:34:59;17.40;;;5.63;;
80307;SDS011;69616;43.522;1.348;2024-01-25T10:37:26;11.63;;;5.10;;
80307;SDS011;69616;43.522;1.348;2024-01-25T10:39:54;13.20;;;6.65;;
80307;SDS011;69616;43.522;1.348;2024-01-25T10:42:20;10.53;;;4.73;;
80307;SDS011;69616;43.522;1.348;2024-01-25T10:44:46;11.52;;;5.40;;
80307;SDS011;69616;43.522;1.348;2024-01-25T10:47:11;14.87;;;5.80;;
80307;SDS011;69616;43.522;1.348;2024-01-25T10:49:37;13.82;;;5.45;;
80307;SDS011;69616;43.522;1.348;2024-01-25T10:52:04;14.67;;;6.63;;
80307;SDS011;69616;43.522;1.348;2024-01-25T10:54:31;11.63;;;5.28;;
80307;SDS011;69616;43.522;1.348;2024-01-25T10:56:58;13.52;;;6.00;;
80307;SDS011;69616;43.522;1.348;2024-01-25T10:59:23;13.18;;;6.55;;
80307;SDS011;69616;43.522;1.348;2024-01-25T11:01:50;26.87;;;7.17;;
80307;SDS011;69616;43.522;1.348;2024-01-25T11:04:16;28.33;;;7.68;;
80307;SDS011;69616;43.522;1.348;2024-01-25T11:06:46;26.52;;;7.50;;
80307;SDS011;69616;43.522;1.348;2024-01-25T11:09:18;15.52;;;7.03;;
80307;SDS011;69616;43.522;1.348;2024-01-25T11:11:46;15.33;;;7.30;;
80307;SDS011;69616;43.522;1.348;2024-01-25T11:14:14;17.25;;;7.65;;
80307;SDS011;69616;43.522;1.348;2024-01-25T11:16:41;19.40;;;8.65;;
80307;SDS011;69616;43.522;1.348;2024-01-25T11:19:15;21.95;;;8.20;;
80307;SDS011;69616;43.522;1.348;2024-01-25T11:21:42;24.17;;;8.48;;
80307;SDS011;69616;43.522;1.348;2024-01-25T11:24:22;18.70;;;8.97;;
80307;SDS011;69616;43.522;1.348;2024-01-25T11:26:48;17.45;;;8.10;;
80307;SDS011;69616;43.522;1.348;2024-01-25T11:31:44;15.27;;;8.00;;
80307;SDS011;69616;43.522;1.348;2024-01-25T11:34:10;15.85;;;7.90;;
80307;SDS011;69616;43.522;1.348;2024-01-25T11:36:36;15.47;;;7.90;;
80307;SDS011;69616;43.522;1.348;2024-01-25T11:39:03;17.08;;;8.18;;
80307;SDS011;69616;43.522;1.348;2024-01-25T11:41:28;18.00;;;8.40;;
80307;SDS011;69616;43.522;1.348;2024-01-25T11:43:55;17.65;;;9.57;;
80307;SDS011;69616;43.522;1.348;2024-01-25T11:46:21;18.23;;;9.03;;
80307;SDS011;69616;43.522;1.348;2024-01-25T11:48:46;16.87;;;9.23;;
80307;SDS011;69616;43.522;1.348;2024-01-25T11:51:12;17.38;;;9.65;;
80307;SDS011;69616;43.522;1.348;2024-01-25T11:53:37;16.23;;;9.03;;
80307;SDS011;69616;43.522;1.348;2024-01-25T11:56:04;17.67;;;9.10;;
80307;SDS011;69616;43.522;1.348;2024-01-25T11:58:32;19.17;;;9.98;;
80307;SDS011;69616;43.522;1.348;2024-01-25T12:00:58;17.10;;;9.10;;
80307;SDS011;69616;43.522;1.348;2024-01-25T12:03:24;16.92;;;9.57;;
80307;SDS011;69616;43.522;1.348;2024-01-25T12:05:50;16.33;;;9.18;;
80307;SDS011;69616;43.522;1.348;2024-01-25T12:08:16;16.25;;;9.45;;
80307;SDS011;69616;43.522;1.348;2024-01-25T12:10:42;15.90;;;9.20;;
80307;SDS011;69616;43.522;1.348;2024-01-25T12:13:07;15.23;;;9.03;;
80307;SDS011;69616;43.522;1.348;2024-01-25T12:15:34;14.75;;;7.78;;
80307;SDS011;69616;43.522;1.348;2024-01-25T12:18:00;14.15;;;7.93;;
80307;SDS011;69616;43.522;1.348;2024-01-25T12:20:27;15.18;;;8.40;;
80307;SDS011;69616;43.522;1.348;2024-01-25T12:22:53;15.57;;;8.27;;
80307;SDS011;69616;43.522;1.348;2024-01-25T12:25:19;14.30;;;8.90;;
80307;SDS011;69616;43.522;1.348;2024-01-25T12:27:44;13.63;;;7.93;;
80307;SDS011;69616;43.522;1.348;2024-01-25T12:30:14;14.40;;;8.38;;
80307;SDS011;69616;43.522;1.348;2024-01-25T12:32:39;13.67;;;8.20;;
80307;SDS011;69616;43.522;1.348;2024-01-25T12:35:05;17.58;;;7.70;;
80307;SDS011;69616;43.522;1.348;2024-01-25T12:37:31;16.88;;;8.45;;
80307;SDS011;69616;43.522;1.348;2024-01-25T12:39:56;15.27;;;9.40;;
80307;SDS011;69616;43.522;1.348;2024-01-25T12:42:22;18.20;;;8.83;;
80307;SDS011;69616;43.522;1.348;2024-01-25T12:44:48;15.27;;;8.83;;
80307;SDS011;69616;43.522;1.348;2024-01-25T12:47:15;15.10;;;8.30;;
80307;SDS011;69616;43.522;1.348;2024-01-25T12:49:44;17.77;;;8.23;;
80307;SDS011;69616;43.522;1.348;2024-01-25T12:52:10;14.83;;;7.70;;
80307;SDS011;69616;43.522;1.348;2024-01-25T12:54:37;18.38;;;8.07;;
80307;SDS011;69616;43.522;1.348;2024-01-25T12:57:04;14.63;;;7.18;;
80307;SDS011;69616;43.522;1.348;2024-01-25T12:59:30;15.40;;;7.90;;
80307;SDS011;69616;43.522;1.348;2024-01-25T13:01:56;13.07;;;7.15;;
80307;SDS011;69616;43.522;1.348;2024-01-25T13:04:22;11.43;;;6.23;;
80307;SDS011;69616;43.522;1.348;2024-01-25T13:06:48;12.57;;;6.63;;
80307;SDS011;69616;43.522;1.348;2024-01-25T13:09:13;16.20;;;7.70;;
80307;SDS011;69616;43.522;1.348;2024-01-25T13:11:40;14.45;;;7.40;;
80307;SDS011;69616;43.522;1.348;2024-01-25T13:14:06;18.23;;;9.07;;
80307;SDS011;69616;43.522;1.348;2024-01-25T13:16:32;22.50;;;10.18;;
80307;SDS011;69616;43.522;1.348;2024-01-25T13:18:58;22.63;;;10.27;;
80307;SDS011;69616;43.522;1.348;2024-01-25T13:21:23;20.30;;;11.70;;
80307;SDS011;69616;43.522;1.348;2024-01-25T13:23:49;27.13;;;15.10;;
80307;SDS011;69616;43.522;1.348;2024-01-25T13:26:14;27.63;;;14.43;;
80307;SDS011;69616;43.522;1.348;2024-01-25T13:28:39;24.53;;;14.00;;
80307;SDS011;69616;43.522;1.348;2024-01-25T13:31:05;24.57;;;13.20;;
80307;SDS011;69616;43.522;1.348;2024-01-25T13:33:30;21.95;;;10.35;;
80307;SDS011;69616;43.522;1.348;2024-01-25T13:35:56;20.10;;;11.50;;
80307;SDS011;69616;43.522;1.348;2024-01-25T13:38:21;23.10;;;12.47;;
80307;SDS011;69616;43.522;1.348;2024-01-25T13:40:46;21.73;;;12.47;;
80307;SDS011;69616;43.522;1.348;2024-01-25T13:43:12;23.13;;;11.50;;
80307;SDS011;69616;43.522;1.348;2024-01-25T13:45:37;20.23;;;10.77;;
80307;SDS011;69616;43.522;1.348;2024-01-25T13:48:03;21.77;;;10.33;;
80307;SDS011;69616;43.522;1.348;2024-01-25T13:50:29;21.17;;;10.43;;
80307;SDS011;69616;43.522;1.348;2024-01-25T13:52:54;22.90;;;12.00;;
80307;SDS011;69616;43.522;1.348;2024-01-25T13:55:20;19.07;;;10.67;;
80307;SDS011;69616;43.522;1.348;2024-01-25T13:57:45;19.58;;;11.20;;
80307;SDS011;69616;43.522;1.348;2024-01-25T14:00:11;19.53;;;10.73;;
80307;SDS011;69616;43.522;1.348;2024-01-25T14:02:37;17.35;;;10.05;;
80307;SDS011;69616;43.522;1.348;2024-01-25T14:05:04;20.23;;;11.40;;
80307;SDS011;69616;43.522;1.348;2024-01-25T14:07:29;19.30;;;10.57;;
80307;SDS011;69616;43.522;1.348;2024-01-25T14:09:55;21.40;;;11.60;;
80307;SDS011;69616;43.522;1.348;2024-01-25T14:12:20;21.37;;;11.73;;
80307;SDS011;69616;43.522;1.348;2024-01-25T14:14:46;20.83;;;10.70;;
80307;SDS011;69616;43.522;1.348;2024-01-25T14:17:11;24.40;;;12.43;;
80307;SDS011;69616;43.522;1.348;2024-01-25T14:19:36;25.70;;;12.60;;
80307;SDS011;69616;43.522;1.348;2024-01-25T14:22:02;25.17;;;12.70;;
80307;SDS011;69616;43.522;1.348;2024-01-25T14:24:27;19.43;;;11.63;;
80307;SDS011;69616;43.522;1.348;2024-01-25T14:26:53;21.53;;;11.20;;
80307;SDS011;69616;43.522;1.348;2024-01-25T14:29:18;20.03;;;10.83;;